Latest Coastal Weather Observations for Cape Nelson

IDV60701

Issued at 1:12 am EST Thursday 3 September 2026 (issued every 10 minutes, with the page automatically refreshed every 10 minutes)

About coastal observations | Map of coastal stations | Coastal observations for VIC | Marine services | Other Formats
Station Details ID: 090184 Name: CAPE NELSON LIGHTHOUSE Lat: -38.43 Lon: 141.54 Height: 45.4 m
Data from the previous 72 hours. | See also: Recent months at Cape Nelson
Date/Time
EST
Wind Sea
Height
m
Swell Vis
km
Cloud Weather Temp
°C
Press
MSL
hPa
Rain since
9am
mm
Dir  Spd
kts
Gust
kts
Height
m
Period
s
Dir
03/01:00am NNW 18 29 - - - - - - - 11.6 1008.2 1.0
03/12:48am NW 18 28 - - - - - - - 11.6 1008.3 1.0
03/12:30am NW 18 26 - - - - - - - 11.7 1008.4 1.0
03/12:00am NW 17 23 - - - - - - - 11.5 1008.8 1.0
 
Date/Time
EST
Wind Sea
Height
m
Swell Vis
km
Cloud Weather Temp
°C
Press
MSL
hPa
Rain since
9am
mm
Dir  Spd
kts
Gust
kts
Height
m
Period
s
Dir
02/11:30pm NW 18 25 - - - - - - - 11.7 1009.3 1.0
02/11:00pm NW 18 25 - - - - - - - 11.7 1009.7 1.0
02/10:51pm NW 16 23 - - - - - - - 11.6 1009.8 1.0
02/10:30pm NNW 17 26 - - - - - - - 11.5 1009.8 1.0
02/10:28pm NNW 16 26 - - - - - - - 11.5 1009.9 1.0
02/10:00pm NNW 17 25 - - - - - - - 11.3 1010.0 1.0
02/09:30pm NNW 13 21 - - - - - - - 11.0 1010.3 1.0
02/09:00pm NNW 13 18 - - - - - - - 10.9 1010.3 1.0
02/08:32pm NNW 15 21 - - - - - - - 11.0 1010.4 1.0
02/08:30pm NNW 14 19 - - - - - - - 11.1 1010.5 1.0
02/08:22pm NNW 15 25 - - - - - - - 11.1 1010.5 1.0
02/08:06pm NW 14 21 - - - - - - - 11.1 1010.5 1.0
02/08:00pm NNW 14 23 - - - - - - - 11.0 1010.5 1.0
02/07:44pm NW 16 26 - - - - - - - 11.9 1010.6 0.8
02/07:30pm NW 15 22 - - - - - - - 12.1 1010.6 0.0
02/07:28pm NW 16 22 - - - - - - - 12.1 1010.6 0.0
02/07:18pm NW 15 25 - - - - - - - 12.1 1010.4 0.0
02/07:00pm NW 19 25 - - - - - - - 12.1 1010.4 0.0
02/06:30pm NNW 14 21 - - - - - - - 11.9 1010.3 0.0
02/06:06pm NW 19 27 - - - - - - - 11.7 1010.3 0.0
02/06:00pm NW 20 29 - - - - - - - 12.1 1010.4 0.0
02/05:44pm NW 18 28 - - - - - - - 12.9 1010.3 0.0
02/05:30pm NW 14 23 - - - - - - - 12.8 1010.2 0.0
02/05:06pm WNW 17 25 - - - - - - - 13.0 1010.5 0.0
02/05:00pm WNW 17 26 - - - - - - - 13.1 1010.6 0.0
02/04:51pm NW 15 26 - - - - - - - 13.2 1010.5 0.0
02/04:30pm NW 15 21 - - - - - - - 13.1 1010.6 0.0
02/04:00pm NW 14 22 - - - - - - - 12.8 1010.8 0.0
02/03:30pm NW 18 27 - - - - - - - 11.9 1011.4 0.0
02/03:25pm NW 20 27 - - - - - - - 12.0 1011.5 0.0
02/03:14pm NW 15 25 - - - - - - - 13.2 1011.4 0.0
02/03:00pm NW 16 21 - - - - - - - 13.8 1011.4 0.0
02/02:30pm NW 14 19 - - - - - - - 12.5 1011.5 0.0
02/02:00pm NW 16 23 - - - - - - - 14.4 1011.8 0.0
02/01:43pm NW 16 23 - - - - - - - 13.7 1012.1 0.0
02/01:30pm NW 16 26 - - - - - - - 13.2 1012.4 0.0
02/01:24pm NW 15 26 - - - - - - - 13.6 1012.3 0.0
02/01:00pm NW 15 22 - - - - - - - 14.0 1012.8 0.0
02/12:30pm NW 14 21 - - - - - - - 12.9 1013.1 0.0
02/12:00pm NW 14 20 - - - - - - - 12.8 1013.3 0.0
02/11:57am NW 13 20 - - - - - - - 13.0 1013.2 0.0
02/11:40am NW 15 25 - - - - - - - 13.2 1013.4 0.0
02/11:30am NNW 13 19 - - - - - - - 13.4 1013.5 0.0
02/11:00am NW 14 21 - - - - - - - 14.1 1013.8 0.0
02/10:57am NW 15 21 - - - - - - - 13.6 1013.8 0.0
02/10:47am NW 16 26 - - - - - - - 13.0 1013.9 0.0
02/10:45am NW 17 26 - - - - - - - 12.7 1013.9 0.0
02/10:33am WNW 16 26 - - - - - - - 13.3 1013.9 0.0
02/10:30am WNW 14 20 - - - - - - - 13.6 1013.9 0.0
02/10:00am WNW 16 24 - - - - - - - 12.9 1014.0 0.0
02/09:30am WNW 15 19 - - - - - - - 13.5 1014.0 0.0
02/09:21am WNW 16 23 - - - - - - - 13.4 1014.0 0.0
02/09:11am WNW 15 25 - - - - - - - 13.0 1013.9 0.0
02/09:00am WNW 13 19 - - - - - - - 13.1 1014.0 9.6
02/08:30am WNW 13 21 - - - - - - - 12.8 1014.0 9.6
02/08:00am WNW 15 21 - - - - - - - 12.6 1013.9 9.6
02/07:30am WNW 15 20 - - - - - - - 12.6 1013.9 9.6
02/07:00am WNW 17 23 - - - - - - - 12.5 1013.6 9.6
02/06:30am WNW 16 22 - - - - - - - 12.4 1013.5 9.6
02/06:00am WNW 14 19 - - - - - - - 12.3 1013.4 9.6
02/05:30am WNW 14 19 - - - - - - - 12.2 1013.4 9.6
02/05:00am W 15 23 - - - - - - - 12.3 1013.4 9.6
02/04:30am WNW 15 22 - - - - - - - 12.1 1013.2 9.6
02/04:00am W 12 21 - - - - - - - 12.2 1013.2 9.6
02/03:30am WNW 12 19 - - - - - - - 11.8 1013.3 9.6
02/03:00am WNW 11 16 - - - - - - - 11.6 1013.5 9.6
02/02:30am W 11 19 - - - - - - - 11.9 1014.0 9.6
02/02:00am W 13 17 - - - - - - - 11.6 1014.1 9.6
02/01:30am WNW 12 19 - - - - - - - 11.7 1013.9 9.6
02/01:00am W 13 19 - - - - - - - 11.7 1014.0 9.6
02/12:30am WNW 11 19 - - - - - - - 11.8 1013.7 9.6
02/12:00am WNW 13 19 - - - - - - - 11.7 1013.8 9.6
 
Date/Time
EST
Wind Sea
Height
m
Swell Vis
km
Cloud Weather Temp
°C
Press
MSL
hPa
Rain since
9am
mm
Dir  Spd
kts
Gust
kts
Height
m
Period
s
Dir
01/11:30pm W 14 19 - - - - - - - 11.9 1013.8 9.6
01/11:00pm W 16 21 - - - - - - - 12.2 1013.8 9.6
01/10:30pm W 15 19 - - - - - - - 12.3 1013.6 9.6
01/10:00pm NNW 8 13 - - - - - - - 12.1 1013.3 9.6
01/09:30pm N 9 13 - - - - - - - 12.1 1013.3 9.6
01/09:00pm NW 10 14 - - - - - - - 11.9 1012.8 9.6
01/08:30pm NW 9 13 - - - - - - - 12.4 1012.4 9.6
01/08:00pm NNE 8 13 - - - - - - - 12.2 1011.9 9.6
01/07:30pm NE 11 15 - - - - - - - 12.5 1011.4 9.6
01/07:29pm NE 11 15 - - - - - - - 12.5 1011.4 9.6
01/07:14pm NW 17 27 - - - - - - - 13.5 1011.0 8.8
01/07:00pm NW 19 25 - - - - - - - 13.5 1010.7 8.0
01/06:30pm NNW 18 26 - - - - - - - 13.4 1010.5 7.2
01/06:00pm NNW 16 24 - - - - - - Recent precip. 13.3 1010.3 7.2
01/05:59pm NNW 17 24 - - - - - - - 13.3 1010.3 7.2
01/05:30pm NNW 16 27 - - - - - - - 13.3 1010.1 6.8
01/05:29pm NNW 16 27 - - - - - - - 13.3 1010.1 6.8
01/05:23pm NNW 17 25 - - - - - - - 13.3 1010.0 6.6
01/05:12pm NNW 15 25 - - - - - - - 13.4 1010.0 6.4
01/05:00pm NNW 16 24 - - - - - - - 13.4 1009.6 6.0
01/04:30pm NNW 15 23 - - - - - - - 13.4 1009.9 5.2
01/04:00pm NNW 12 19 - - - - - - - 13.5 1010.8 3.6
01/03:30pm NNW 17 25 - - - - - - - 13.7 1010.9 2.4
01/03:11pm NW 20 28 - - - - - - - 14.1 1011.2 1.2
01/03:00pm NW 19 29 - - - - - - Rain 14.5 1011.3 0.6
01/02:59pm NW 19 29 - - - - - - - 14.5 1011.3 0.4
01/02:31pm NW 21 30 - - - - - - - 15.5 1011.5 0.2
01/02:30pm NW 22 30 - - - - - - - 15.5 1011.5 0.2
01/02:16pm NW 19 29 - - - - - - - 15.9 1011.4 0.0
01/02:14pm NW 18 25 - - - - - - - 15.8 1011.4 0.0
01/02:00pm NW 22 36 - - - - - - - 15.5 1011.4 0.0
01/01:30pm NW 23 33 - - - - - - - 18.2 1011.4 0.0
01/01:00pm NNW 17 27 - - - - - - - 18.1 1011.2 0.0
01/12:59pm NNW 17 27 - - - - - - - 18.2 1011.2 0.0
01/12:40pm NNW 20 29 - - - - - - - 18.4 1011.4 0.0
01/12:30pm NNW 19 30 - - - - - - - 19.1 1011.6 0.0
01/12:21pm NNW 19 30 - - - - - - - 19.2 1011.7 0.0
01/12:19pm NNW 19 28 - - - - - - - 19.0 1011.7 0.0
01/12:00pm NNW 18 28 - - - - - - - 18.3 1012.2 0.0
01/11:45am NNW 17 27 - - - - - - - 17.1 1012.4 0.0
01/11:34am NNW 17 25 - - - - - - - 16.9 1012.7 0.0
01/11:30am NNW 18 25 - - - - - - - 17.3 1012.8 0.0
01/11:00am NNW 16 24 - - - - - - - 17.3 1013.0 0.0
01/10:30am NNW 15 25 - - - - - - - 17.0 1013.4 0.0
01/10:21am NNW 15 23 - - - - - - - 16.9 1013.4 0.0
01/10:00am NNW 16 25 - - - - - - - 17.0 1013.6 0.0
01/09:44am NNW 15 25 - - - - - - - 17.2 1013.9 0.0
01/09:30am N 17 25 - - - - - - - 16.7 1014.0 0.0
01/09:13am N 16 24 - - - - - - - 16.0 1014.4 0.0
01/09:00am N 17 27 - - - - - - - 16.1 1014.5 0.0
01/08:32am N 17 29 - - - - - - - 16.0 1014.8 0.0
01/08:30am N 17 25 - - - - - - - 15.8 1014.8 0.0
01/08:23am N 17 25 - - - - - - - 15.3 1015.0 0.0
01/08:00am N 16 27 - - - - - - - 14.4 1015.3 0.0
01/07:58am N 16 27 - - - - - - - 14.4 1015.3 0.0
01/07:30am N 14 20 - - - - - - - 13.2 1015.4 0.0
01/07:00am N 14 21 - - - - - - - 12.4 1015.6 0.0
01/06:30am N 13 20 - - - - - - - 11.8 1015.9 0.0
01/06:00am N 14 20 - - - - - - - 11.8 1015.9 0.0
01/05:30am N 13 19 - - - - - - - 11.9 1016.4 0.0
01/05:00am N 13 19 - - - - - - - 12.3 1017.1 0.0
01/04:30am N 13 18 - - - - - - - 12.8 1017.7 0.0
01/04:00am N 13 20 - - - - - - - 13.3 1018.1 0.0
01/03:30am N 12 17 - - - - - - - 12.1 1018.9 0.0
01/03:00am N 14 18 - - - - - - - 12.3 1019.5 0.0
01/02:30am N 12 19 - - - - - - - 12.6 1020.3 0.0
01/02:00am N 12 17 - - - - - - - 12.7 1020.9 0.0
01/01:30am NNW 12 17 - - - - - - - 13.2 1021.3 0.0
01/01:00am N 11 16 - - - - - - - 13.5 1021.5 0.0
01/12:30am N 11 15 - - - - - - - 13.2 1021.8 0.0
01/12:00am N 9 13 - - - - - - - 11.9 1022.4 0.0
 
Date/Time
EST
Wind Sea
Height
m
Swell Vis
km
Cloud Weather Temp
°C
Press
MSL
hPa
Rain since
9am
mm
Dir  Spd
kts
Gust
kts
Height
m
Period
s
Dir
31/11:30pm N 7 8 - - - - - - - 10.5 1023.0 0.0
31/11:00pm N 7 9 - - - - - - - 10.4 1023.6 0.0
31/10:30pm N 7 8 - - - - - - - 9.9 1024.2 0.0
31/10:00pm N 7 7 - - - - - - - 9.9 1024.2 0.0
31/09:30pm N 6 7 - - - - - - - 9.8 1024.7 0.0
31/09:00pm NNE 6 7 - - - - - - - 9.7 1025.0 0.0
31/08:30pm NE 6 6 - - - - - - - 9.7 1025.1 0.0
31/08:00pm NNE 5 6 - - - - - - - 9.8 1025.5 0.0
31/07:30pm NNE 4 4 - - - - - - - 10.3 1025.7 0.0
31/07:00pm NNE 3 4 - - - - - - - 11.3 1025.8 0.0
31/06:30pm NNE 4 4 - - - - - - - 12.0 1025.9 0.0
31/06:00pm NE 4 5 - - - - - - - 13.1 1026.0 0.0
31/05:30pm ENE 5 6 - - - - - - - 14.1 1026.1 0.0
31/05:00pm ENE 5 7 - - - - - - - 14.7 1026.2 0.0
31/04:30pm ENE 7 8 - - - - - - - 14.8 1026.4 0.0
31/04:00pm ENE 5 8 - - - - - - - 15.5 1026.8 0.0
31/03:30pm E 6 8 - - - - - - - 16.0 1027.4 0.0
31/03:00pm E 6 8 - - - - - - - 16.0 1027.8 0.0
31/02:30pm ENE 6 9 - - - - - - - 15.9 1028.0 0.0
31/02:00pm ENE 7 9 - - - - - - - 15.5 1028.5 0.0
31/01:30pm ENE 8 10 - - - - - - - 14.9 1029.1 0.0
31/01:00pm E 7 9 - - - - - - - 15.1 1029.6 0.0
31/12:30pm ENE 7 10 - - - - - - - 14.6 1030.2 0.0
31/12:00pm NE 7 9 - - - - - - - 14.0 1030.7 0.0
31/11:30am NE 8 11 - - - - - - - 13.4 1031.1 0.0
31/11:00am NE 7 10 - - - - - - - 13.1 1031.4 0.0
31/10:30am NE 8 9 - - - - - - - 12.7 1031.7 0.0
31/10:00am ENE 6 9 - - - - - - - 12.5 1031.8 0.0
31/09:30am NE 4 7 - - - - - - - 12.3 1032.1 0.0
31/09:00am NNE 5 7 - - - - - - - 11.5 1032.0 0.0
31/08:30am NNE 5 6 - - - - - - - 11.0 1032.2 0.0
31/08:00am NNE 4 5 - - - - - - - 9.9 1032.2 0.0
31/07:30am N 5 7 - - - - - - - 9.5 1032.1 0.0
31/07:00am WNW 2 4 - - - - - - - 10.0 1032.0 0.0
31/06:30am WNW 4 9 - - - - - - - 10.0 1032.0 0.0
31/06:00am SSW 1 3 - - - - - - - 10.2 1032.2 0.0
31/05:30am WSW 3 7 - - - - - - - 10.4 1032.2 0.0
31/05:00am W 4 6 - - - - - - - 10.2 1032.3 0.0
31/04:30am NW 5 8 - - - - - - - 10.0 1032.1 0.0
31/04:00am WNW 4 8 - - - - - - - 10.2 1032.1 0.0
31/03:30am NW 3 5 - - - - - - - 10.3 1032.2 0.0
31/03:00am WNW 4 9 - - - - - - - 10.4 1032.7 0.0
31/02:30am NW 5 10 - - - - - - - 10.6 1032.9 0.0
31/02:00am WNW 3 6 - - - - - - - 10.6 1033.0 0.0
31/01:30am WNW 4 8 - - - - - - - 10.7 1033.2 0.0

Other formats

Comma delimited format used in spreadsheet applications
http://www.bom.gov.au/fwo/IDV60701/IDV60701.94826.axf

JavaScript Object Notation format (JSON) in row-major order
http://www.bom.gov.au/fwo/IDV60701/IDV60701.94826.json

Data quality

Most of these data are generated automatically and are frequently updated. Quality checks on data are not normally performed. It is possible for incorrect values to appear. Refer to information at About Latest Weather Observations and please check the disclaimer before using these data.